sensor_id;sensor_type;location;lat;lon;timestamp;pressure;altitude;pressure_sealevel;temperature;humidity
70728;BME280;58314;47.722;17.652;2022-09-09T00:04:38;100229.16;;;16.60;94.43
70728;BME280;58314;47.722;17.652;2022-09-09T00:07:52;100227.13;;;16.50;94.43
70728;BME280;58314;47.722;17.652;2022-09-09T00:10:59;100226.41;;;16.48;95.31
70728;BME280;58314;47.722;17.652;2022-09-09T00:14:05;100219.13;;;16.50;94.83
70728;BME280;58314;47.722;17.652;2022-09-09T00:23:27;100225.44;;;16.49;94.19
70728;BME280;58314;47.722;17.652;2022-09-09T00:26:48;100226.84;;;16.42;94.69
70728;BME280;58314;47.722;17.652;2022-09-09T00:29:54;100224.53;;;16.37;94.35
70728;BME280;58314;47.722;17.652;2022-09-09T00:33:03;100229.91;;;16.25;95.78
70728;BME280;58314;47.722;17.652;2022-09-09T00:36:26;100223.50;;;16.27;95.31
70728;BME280;58314;47.722;17.652;2022-09-09T00:39:34;100230.41;;;16.30;95.26
70728;BME280;58314;47.722;17.652;2022-09-09T00:42:42;100244.53;;;16.32;94.26
70728;BME280;58314;47.722;17.652;2022-09-09T00:49:26;100257.59;;;16.11;96.10
70728;BME280;58314;47.722;17.652;2022-09-09T00:56:19;100238.00;;;15.99;97.07
70728;BME280;58314;47.722;17.652;2022-09-09T00:59:44;100235.22;;;15.88;97.11
70728;BME280;58314;47.722;17.652;2022-09-09T01:12:30;100250.50;;;15.73;98.79
70728;BME280;58314;47.722;17.652;2022-09-09T01:15:35;100260.19;;;15.74;98.79
70728;BME280;58314;47.722;17.652;2022-09-09T01:18:42;100254.00;;;15.73;99.08
70728;BME280;58314;47.722;17.652;2022-09-09T01:21:56;100275.75;;;15.67;99.02
70728;BME280;58314;47.722;17.652;2022-09-09T01:28:27;100278.66;;;15.64;98.57
70728;BME280;58314;47.722;17.652;2022-09-09T01:31:33;100284.41;;;15.58;98.82
70728;BME280;58314;47.722;17.652;2022-09-09T01:34:38;100284.19;;;15.61;98.30
70728;BME280;58314;47.722;17.652;2022-09-09T01:37:40;100287.72;;;15.61;98.53
70728;BME280;58314;47.722;17.652;2022-09-09T01:40:41;100293.34;;;15.57;98.61
70728;BME280;58314;47.722;17.652;2022-09-09T01:43:42;100293.59;;;15.54;99.70
70728;BME280;58314;47.722;17.652;2022-09-09T01:46:43;100297.19;;;15.53;99.85
70728;BME280;58314;47.722;17.652;2022-09-09T01:49:44;100298.56;;;15.46;100.00
70728;BME280;58314;47.722;17.652;2022-09-09T01:52:47;100296.84;;;15.44;100.00
70728;BME280;58314;47.722;17.652;2022-09-09T01:55:58;100294.09;;;15.33;100.00
70728;BME280;58314;47.722;17.652;2022-09-09T02:05:59;100281.06;;;15.16;100.00
70728;BME280;58314;47.722;17.652;2022-09-09T02:09:06;100287.97;;;15.18;100.00
70728;BME280;58314;47.722;17.652;2022-09-09T02:12:14;100286.88;;;15.08;100.00
70728;BME280;58314;47.722;17.652;2022-09-09T02:15:30;100277.88;;;14.96;100.00
70728;BME280;58314;47.722;17.652;2022-09-09T02:21:35;100283.47;;;15.06;100.00
70728;BME280;58314;47.722;17.652;2022-09-09T02:24:38;100276.38;;;14.92;100.00
70728;BME280;58314;47.722;17.652;2022-09-09T02:27:41;100276.38;;;14.92;100.00
70728;BME280;58314;47.722;17.652;2022-09-09T02:30:45;100280.00;;;14.91;100.00
70728;BME280;58314;47.722;17.652;2022-09-09T02:33:57;100283.84;;;14.87;100.00
70728;BME280;58314;47.722;17.652;2022-09-09T02:37:01;100283.63;;;14.90;100.00
70728;BME280;58314;47.722;17.652;2022-09-09T02:40:07;100291.63;;;14.90;100.00
70728;BME280;58314;47.722;17.652;2022-09-09T02:43:09;100288.13;;;14.90;100.00
70728;BME280;58314;47.722;17.652;2022-09-09T02:50:24;100280.25;;;14.74;100.00
70728;BME280;58314;47.722;17.652;2022-09-09T02:53:48;100283.16;;;14.71;100.00
70728;BME280;58314;47.722;17.652;2022-09-09T02:56:53;100274.16;;;14.59;100.00
70728;BME280;58314;47.722;17.652;2022-09-09T02:59:58;100269.66;;;14.59;100.00
70728;BME280;58314;47.722;17.652;2022-09-09T03:02:59;100266.28;;;14.70;100.00
70728;BME280;58314;47.722;17.652;2022-09-09T03:05:59;100266.94;;;14.74;100.00
70728;BME280;58314;47.722;17.652;2022-09-09T03:09:00;100262.59;;;14.73;100.00
70728;BME280;58314;47.722;17.652;2022-09-09T03:12:02;100262.97;;;14.66;100.00
70728;BME280;58314;47.722;17.652;2022-09-09T03:15:05;100259.56;;;14.64;100.00
70728;BME280;58314;47.722;17.652;2022-09-09T03:18:06;100260.00;;;14.58;100.00
70728;BME280;58314;47.722;17.652;2022-09-09T03:21:07;100253.94;;;14.55;100.00
70728;BME280;58314;47.722;17.652;2022-09-09T03:24:08;100260.31;;;14.66;100.00
70728;BME280;58314;47.722;17.652;2022-09-09T03:27:09;100268.31;;;14.66;100.00
70728;BME280;58314;47.722;17.652;2022-09-09T03:30:10;100259.19;;;14.56;100.00
70728;BME280;58314;47.722;17.652;2022-09-09T03:33:11;100271.19;;;14.49;100.00
70728;BME280;58314;47.722;17.652;2022-09-09T03:36:13;100271.28;;;14.47;100.00
70728;BME280;58314;47.722;17.652;2022-09-09T03:39:14;100268.44;;;14.50;100.00
70728;BME280;58314;47.722;17.652;2022-09-09T03:42:16;100267.22;;;14.42;100.00
70728;BME280;58314;47.722;17.652;2022-09-09T03:45:19;100266.75;;;14.35;100.00
70728;BME280;58314;47.722;17.652;2022-09-09T03:48:20;100261.94;;;14.27;100.00
70728;BME280;58314;47.722;17.652;2022-09-09T03:51:20;100269.50;;;14.34;100.00
70728;BME280;58314;47.722;17.652;2022-09-09T03:54:23;100267.34;;;14.26;100.00
70728;BME280;58314;47.722;17.652;2022-09-09T03:57:24;100273.50;;;14.26;100.00
70728;BME280;58314;47.722;17.652;2022-09-09T04:00:25;100282.72;;;14.35;100.00
70728;BME280;58314;47.722;17.652;2022-09-09T04:03:27;100283.13;;;14.29;100.00
70728;BME280;58314;47.722;17.652;2022-09-09T04:06:28;100290.81;;;14.19;100.00
70728;BME280;58314;47.722;17.652;2022-09-09T04:09:33;100289.66;;;14.23;100.00
70728;BME280;58314;47.722;17.652;2022-09-09T04:12:34;100303.94;;;14.22;100.00
70728;BME280;58314;47.722;17.652;2022-09-09T04:15:35;100304.78;;;14.23;100.00
70728;BME280;58314;47.722;17.652;2022-09-09T04:18:36;100302.59;;;14.29;100.00
70728;BME280;58314;47.722;17.652;2022-09-09T04:21:36;100298.78;;;14.34;100.00
70728;BME280;58314;47.722;17.652;2022-09-09T04:24:37;100304.78;;;14.23;100.00
70728;BME280;58314;47.722;17.652;2022-09-09T04:27:37;100316.56;;;14.33;100.00
70728;BME280;58314;47.722;17.652;2022-09-09T04:30:38;100313.63;;;14.38;100.00
70728;BME280;58314;47.722;17.652;2022-09-09T04:33:40;100315.22;;;14.40;100.00
70728;BME280;58314;47.722;17.652;2022-09-09T04:36:41;100316.75;;;14.44;100.00
70728;BME280;58314;47.722;17.652;2022-09-09T04:39:41;100313.41;;;14.41;100.00
70728;BME280;58314;47.722;17.652;2022-09-09T04:42:42;100309.91;;;14.40;100.00
70728;BME280;58314;47.722;17.652;2022-09-09T04:45:47;100316.19;;;14.39;100.00
70728;BME280;58314;47.722;17.652;2022-09-09T04:48:49;100309.06;;;14.40;100.00
70728;BME280;58314;47.722;17.652;2022-09-09T04:51:50;100315.72;;;14.32;100.00
70728;BME280;58314;47.722;17.652;2022-09-09T04:54:51;100313.72;;;14.36;100.00
70728;BME280;58314;47.722;17.652;2022-09-09T04:57:54;100313.16;;;14.31;100.00
70728;BME280;58314;47.722;17.652;2022-09-09T05:00:55;100311.91;;;14.37;100.00
70728;BME280;58314;47.722;17.652;2022-09-09T05:03:56;100317.13;;;14.38;100.00
70728;BME280;58314;47.722;17.652;2022-09-09T05:06:56;100318.38;;;14.32;100.00
70728;BME280;58314;47.722;17.652;2022-09-09T05:09:57;100315.53;;;14.36;100.00
70728;BME280;58314;47.722;17.652;2022-09-09T05:12:58;100317.81;;;14.27;100.00
70728;BME280;58314;47.722;17.652;2022-09-09T05:15:59;100319.31;;;14.31;100.00
70728;BME280;58314;47.722;17.652;2022-09-09T05:19:00;100325.03;;;14.25;100.00
70728;BME280;58314;47.722;17.652;2022-09-09T05:22:02;100321.59;;;14.23;100.00
70728;BME280;58314;47.722;17.652;2022-09-09T05:25:04;100322.38;;;14.25;100.00
70728;BME280;58314;47.722;17.652;2022-09-09T05:28:04;100311.53;;;14.28;100.00
70728;BME280;58314;47.722;17.652;2022-09-09T05:31:09;100309.75;;;14.29;100.00
70728;BME280;58314;47.722;17.652;2022-09-09T05:34:11;100302.50;;;14.31;100.00
70728;BME280;58314;47.722;17.652;2022-09-09T05:37:12;100307.94;;;14.29;100.00
70728;BME280;58314;47.722;17.652;2022-09-09T05:40:12;100309.91;;;14.40;100.00
70728;BME280;58314;47.722;17.652;2022-09-09T05:43:13;100314.16;;;14.57;100.00
70728;BME280;58314;47.722;17.652;2022-09-09T05:46:16;100317.25;;;14.78;100.00
70728;BME280;58314;47.722;17.652;2022-09-09T05:49:17;100318.00;;;15.07;100.00
70728;BME280;58314;47.722;17.652;2022-09-09T05:52:18;100316.25;;;15.34;100.00
70728;BME280;58314;47.722;17.652;2022-09-09T05:55:19;100312.22;;;15.41;100.00
70728;BME280;58314;47.722;17.652;2022-09-09T05:58:19;100318.72;;;15.50;100.00
70728;BME280;58314;47.722;17.652;2022-09-09T06:01:25;100304.56;;;15.49;100.00
70728;BME280;58314;47.722;17.652;2022-09-09T06:04:29;100308.28;;;15.47;100.00
70728;BME280;58314;47.722;17.652;2022-09-09T06:07:30;100303.47;;;15.52;100.00
70728;BME280;58314;47.722;17.652;2022-09-09T06:10:31;100318.72;;;15.50;100.00
70728;BME280;58314;47.722;17.652;2022-09-09T06:13:32;100317.44;;;15.42;100.00
70728;BME280;58314;47.722;17.652;2022-09-09T06:16:34;100319.38;;;15.40;100.00
70728;BME280;58314;47.722;17.652;2022-09-09T06:19:34;100316.59;;;15.42;100.00
70728;BME280;58314;47.722;17.652;2022-09-09T06:22:35;100319.56;;;15.37;100.00
70728;BME280;58314;47.722;17.652;2022-09-09T06:25:36;100319.56;;;15.37;100.00
70728;BME280;58314;47.722;17.652;2022-09-09T06:28:37;100318.91;;;15.34;100.00
70728;BME280;58314;47.722;17.652;2022-09-09T06:31:38;100325.16;;;15.47;100.00
70728;BME280;58314;47.722;17.652;2022-09-09T06:34:38;100326.88;;;15.61;100.00
70728;BME280;58314;47.722;17.652;2022-09-09T06:37:45;100314.00;;;15.80;99.92
70728;BME280;58314;47.722;17.652;2022-09-09T06:40:56;100311.19;;;15.95;99.31
70728;BME280;58314;47.722;17.652;2022-09-09T06:43:58;100318.69;;;16.03;99.05
70728;BME280;58314;47.722;17.652;2022-09-09T06:46:59;100326.56;;;16.17;98.83
70728;BME280;58314;47.722;17.652;2022-09-09T06:50:00;100320.97;;;16.33;97.42
70728;BME280;58314;47.722;17.652;2022-09-09T06:53:00;100316.59;;;16.45;95.72
70728;BME280;58314;47.722;17.652;2022-09-09T06:56:18;100316.78;;;16.54;96.55
70728;BME280;58314;47.722;17.652;2022-09-09T06:59:19;100320.03;;;16.71;95.10
70728;BME280;58314;47.722;17.652;2022-09-09T07:02:19;100322.22;;;16.90;94.79
70728;BME280;58314;47.722;17.652;2022-09-09T07:05:20;100321.72;;;17.09;94.11
70728;BME280;58314;47.722;17.652;2022-09-09T07:08:22;100333.94;;;17.24;93.37
70728;BME280;58314;47.722;17.652;2022-09-09T07:11:28;100325.69;;;17.39;92.74
70728;BME280;58314;47.722;17.652;2022-09-09T07:14:29;100325.53;;;17.64;89.96
70728;BME280;58314;47.722;17.652;2022-09-09T07:17:30;100325.69;;;17.85;89.27
70728;BME280;58314;47.722;17.652;2022-09-09T07:20:32;100334.28;;;18.02;87.87
70728;BME280;58314;47.722;17.652;2022-09-09T07:23:32;100340.84;;;18.09;86.90
70728;BME280;58314;47.722;17.652;2022-09-09T07:26:34;100338.16;;;18.32;86.02
70728;BME280;58314;47.722;17.652;2022-09-09T07:29:36;100336.66;;;18.61;83.98
70728;BME280;58314;47.722;17.652;2022-09-09T07:32:36;100333.31;;;19.03;83.12
70728;BME280;58314;47.722;17.652;2022-09-09T07:35:37;100327.94;;;19.03;80.44
70728;BME280;58314;47.722;17.652;2022-09-09T07:38:39;100321.56;;;19.15;81.01
70728;BME280;58314;47.722;17.652;2022-09-09T07:41:44;100321.91;;;19.43;80.46
70728;BME280;58314;47.722;17.652;2022-09-09T07:44:45;100321.47;;;19.80;78.78
70728;BME280;58314;47.722;17.652;2022-09-09T07:47:46;100314.44;;;19.89;77.95
70728;BME280;58314;47.722;17.652;2022-09-09T07:50:48;100308.91;;;20.11;76.91
70728;BME280;58314;47.722;17.652;2022-09-09T07:53:52;100313.78;;;19.97;75.47
70728;BME280;58314;47.722;17.652;2022-09-09T07:56:53;100310.88;;;20.09;75.94
70728;BME280;58314;47.722;17.652;2022-09-09T07:59:54;100315.41;;;20.19;75.15
70728;BME280;58314;47.722;17.652;2022-09-09T08:02:56;100313.56;;;20.50;75.18
70728;BME280;58314;47.722;17.652;2022-09-09T08:06:01;100316.19;;;20.71;75.12
70728;BME280;58314;47.722;17.652;2022-09-09T08:09:03;100307.50;;;20.58;74.29
70728;BME280;58314;47.722;17.652;2022-09-09T08:12:04;100310.53;;;20.64;74.05
70728;BME280;58314;47.722;17.652;2022-09-09T08:15:07;100312.03;;;20.57;72.16
70728;BME280;58314;47.722;17.652;2022-09-09T08:18:07;100314.78;;;20.77;71.67
70728;BME280;58314;47.722;17.652;2022-09-09T08:21:14;100308.56;;;21.05;71.37
70728;BME280;58314;47.722;17.652;2022-09-09T08:24:17;100303.63;;;21.11;70.81
70728;BME280;58314;47.722;17.652;2022-09-09T08:27:20;100310.00;;;21.10;70.21
70728;BME280;58314;47.722;17.652;2022-09-09T08:30:20;100314.38;;;21.11;70.12
70728;BME280;58314;47.722;17.652;2022-09-09T08:33:21;100314.53;;;21.19;70.16
70728;BME280;58314;47.722;17.652;2022-09-09T08:36:24;100314.09;;;21.62;69.71
70728;BME280;58314;47.722;17.652;2022-09-09T08:39:26;100327.41;;;21.64;68.92
70728;BME280;58314;47.722;17.652;2022-09-09T08:42:39;100327.53;;;21.62;68.73
70728;BME280;58314;47.722;17.652;2022-09-09T08:45:51;100323.03;;;21.63;66.33
70728;BME280;58314;47.722;17.652;2022-09-09T08:52:37;100304.53;;;21.88;68.31
70728;BME280;58314;47.722;17.652;2022-09-09T08:55:47;100316.69;;;22.02;68.54
70728;BME280;58314;47.722;17.652;2022-09-09T08:58:51;100316.59;;;22.21;67.09
70728;BME280;58314;47.722;17.652;2022-09-09T09:02:16;100316.25;;;22.44;65.79
70728;BME280;58314;47.722;17.652;2022-09-09T09:05:40;100307.53;;;22.22;60.48
70728;BME280;58314;47.722;17.652;2022-09-09T09:08:51;100309.50;;;22.20;60.67
70728;BME280;58314;47.722;17.652;2022-09-09T09:12:00;100305.97;;;22.57;60.39
70728;BME280;58314;47.722;17.652;2022-09-09T09:15:01;100307.03;;;22.64;60.02
70728;BME280;58314;47.722;17.652;2022-09-09T09:18:04;100300.38;;;22.86;58.13
70728;BME280;58314;47.722;17.652;2022-09-09T09:21:12;100299.22;;;23.07;56.48
70728;BME280;58314;47.722;17.652;2022-09-09T09:27:59;100308.09;;;23.17;55.65
70728;BME280;58314;47.722;17.652;2022-09-09T09:31:09;100307.31;;;22.89;56.39
70728;BME280;58314;47.722;17.652;2022-09-09T09:34:11;100305.47;;;23.25;56.44
70728;BME280;58314;47.722;17.652;2022-09-09T09:37:17;100297.09;;;23.55;54.75
70728;BME280;58314;47.722;17.652;2022-09-09T09:40:21;100293.56;;;23.54;51.22
70728;BME280;58314;47.722;17.652;2022-09-09T09:43:26;100297.41;;;24.04;51.48
70728;BME280;58314;47.722;17.652;2022-09-09T09:46:28;100291.19;;;23.33;50.24
70728;BME280;58314;47.722;17.652;2022-09-09T09:49:29;100290.50;;;24.01;52.09
70728;BME280;58314;47.722;17.652;2022-09-09T09:52:30;100289.06;;;24.66;50.98
70728;BME280;58314;47.722;17.652;2022-09-09T09:55:33;100288.75;;;24.69;50.04
70728;BME280;58314;47.722;17.652;2022-09-09T10:01:45;100285.94;;;24.44;49.28
70728;BME280;58314;47.722;17.652;2022-09-09T10:04:46;100276.94;;;25.03;49.42
70728;BME280;58314;47.722;17.652;2022-09-09T10:08:01;100279.00;;;24.42;51.17
70728;BME280;58314;47.722;17.652;2022-09-09T10:14:21;100279.63;;;23.41;53.19
70728;BME280;58314;47.722;17.652;2022-09-09T10:21:01;100272.41;;;25.28;47.80
70728;BME280;58314;47.722;17.652;2022-09-09T10:30:41;100271.53;;;25.61;47.09
70728;BME280;58314;47.722;17.652;2022-09-09T10:41:16;100269.84;;;25.51;47.94
70728;BME280;58314;47.722;17.652;2022-09-09T10:47:59;100257.31;;;28.36;40.29
70728;BME280;58314;47.722;17.652;2022-09-09T10:51:20;100248.19;;;30.83;35.35
70728;BME280;58314;47.722;17.652;2022-09-09T11:00:48;100246.94;;;30.79;31.83
70728;BME280;58314;47.722;17.652;2022-09-09T11:03:56;100247.91;;;32.18;29.08
70728;BME280;58314;47.722;17.652;2022-09-09T11:07:02;100245.59;;;28.93;31.37
70728;BME280;58314;47.722;17.652;2022-09-09T11:10:17;100244.81;;;31.88;29.08
70728;BME280;58314;47.722;17.652;2022-09-09T11:16:52;100245.94;;;32.32;28.22
70728;BME280;58314;47.722;17.652;2022-09-09T11:19:54;100240.00;;;32.42;28.27
70728;BME280;58314;47.722;17.652;2022-09-09T11:23:02;100247.06;;;32.56;29.36
70728;BME280;58314;47.722;17.652;2022-09-09T11:26:06;100242.16;;;33.98;27.05
70728;BME280;58314;47.722;17.652;2022-09-09T11:32:54;100233.22;;;33.84;24.49
70728;BME280;58314;47.722;17.652;2022-09-09T11:36:31;100232.06;;;33.91;24.54
70728;BME280;58314;47.722;17.652;2022-09-09T11:43:12;100224.97;;;35.47;24.66
70728;BME280;58314;47.722;17.652;2022-09-09T11:46:16;100226.19;;;34.85;24.03
70728;BME280;58314;47.722;17.652;2022-09-09T11:49:42;100225.72;;;34.58;24.51
70728;BME280;58314;47.722;17.652;2022-09-09T11:52:45;100219.75;;;33.57;25.78
70728;BME280;58314;47.722;17.652;2022-09-09T11:55:46;100204.88;;;34.39;26.36
70728;BME280;58314;47.722;17.652;2022-09-09T11:58:57;100209.38;;;33.59;24.12
70728;BME280;58314;47.722;17.652;2022-09-09T12:02:12;100200.56;;;34.12;23.68
70728;BME280;58314;47.722;17.652;2022-09-09T12:05:15;100196.56;;;34.57;24.43
70728;BME280;58314;47.722;17.652;2022-09-09T12:08:27;100198.50;;;35.46;23.81
70728;BME280;58314;47.722;17.652;2022-09-09T12:11:29;100191.56;;;35.55;22.92
70728;BME280;58314;47.722;17.652;2022-09-09T12:14:37;100173.75;;;35.11;23.09
70728;BME280;58314;47.722;17.652;2022-09-09T12:17:50;100172.91;;;35.45;22.86
70728;BME280;58314;47.722;17.652;2022-09-09T12:24:11;100169.72;;;33.80;24.64
70728;BME280;58314;47.722;17.652;2022-09-09T12:27:29;100177.19;;;32.47;26.10
70728;BME280;58314;47.722;17.652;2022-09-09T12:30:55;100173.63;;;30.96;27.26
70728;BME280;58314;47.722;17.652;2022-09-09T12:34:15;100184.31;;;31.31;27.20
70728;BME280;58314;47.722;17.652;2022-09-09T12:37:37;100170.25;;;31.21;27.33
70728;BME280;58314;47.722;17.652;2022-09-09T12:40:39;100166.66;;;30.73;27.50
70728;BME280;58314;47.722;17.652;2022-09-09T12:43:40;100167.16;;;30.22;29.29
70728;BME280;58314;47.722;17.652;2022-09-09T12:46:44;100167.25;;;30.35;29.48
70728;BME280;58314;47.722;17.652;2022-09-09T12:49:47;100163.31;;;30.71;29.21
70728;BME280;58314;47.722;17.652;2022-09-09T12:52:51;100161.59;;;31.50;28.11
70728;BME280;58314;47.722;17.652;2022-09-09T12:56:19;100158.22;;;31.35;26.09
70728;BME280;58314;47.722;17.652;2022-09-09T12:59:39;100145.34;;;32.21;26.55
70728;BME280;58314;47.722;17.652;2022-09-09T13:02:55;100138.94;;;31.88;25.87
70728;BME280;58314;47.722;17.652;2022-09-09T13:06:12;100125.66;;;32.69;26.11
70728;BME280;58314;47.722;17.652;2022-09-09T13:09:13;100126.25;;;32.96;26.30
70728;BME280;58314;47.722;17.652;2022-09-09T13:12:17;100133.59;;;31.62;26.49
70728;BME280;58314;47.722;17.652;2022-09-09T13:15:24;100128.78;;;32.09;25.80
70728;BME280;58314;47.722;17.652;2022-09-09T13:18:30;100134.94;;;30.72;27.38
70728;BME280;58314;47.722;17.652;2022-09-09T13:21:34;100130.50;;;30.51;27.06
70728;BME280;58314;47.722;17.652;2022-09-09T13:24:35;100125.47;;;31.15;26.60
70728;BME280;58314;47.722;17.652;2022-09-09T13:27:41;100110.22;;;29.92;27.68
70728;BME280;58314;47.722;17.652;2022-09-09T13:30:43;100119.97;;;29.32;31.29
70728;BME280;58314;47.722;17.652;2022-09-09T13:33:45;100118.41;;;28.44;30.65
70728;BME280;58314;47.722;17.652;2022-09-09T13:36:47;100115.19;;;28.55;32.21
70728;BME280;58314;47.722;17.652;2022-09-09T13:39:53;100111.69;;;28.62;31.94
70728;BME280;58314;47.722;17.652;2022-09-09T13:42:55;100104.31;;;27.83;33.05
70728;BME280;58314;47.722;17.652;2022-09-09T13:45:59;100098.28;;;27.51;34.37
70728;BME280;58314;47.722;17.652;2022-09-09T13:52:13;100084.81;;;26.98;36.96
70728;BME280;58314;47.722;17.652;2022-09-09T13:55:14;100081.13;;;27.05;37.94
70728;BME280;58314;47.722;17.652;2022-09-09T13:58:16;100075.72;;;27.05;39.60
70728;BME280;58314;47.722;17.652;2022-09-09T14:01:21;100078.00;;;26.41;41.88
70728;BME280;58314;47.722;17.652;2022-09-09T14:04:23;100072.56;;;26.41;43.05
70728;BME280;58314;47.722;17.652;2022-09-09T14:07:24;100058.66;;;26.59;39.89
70728;BME280;58314;47.722;17.652;2022-09-09T14:10:25;100042.44;;;26.36;41.28
70728;BME280;58314;47.722;17.652;2022-09-09T14:13:26;100048.94;;;26.26;44.08
70728;BME280;58314;47.722;17.652;2022-09-09T14:16:27;100039.31;;;26.24;43.50
70728;BME280;58314;47.722;17.652;2022-09-09T14:19:28;100050.88;;;26.41;41.03
70728;BME280;58314;47.722;17.652;2022-09-09T14:22:29;100057.00;;;25.88;39.66
70728;BME280;58314;47.722;17.652;2022-09-09T14:25:29;100065.00;;;26.13;40.29
70728;BME280;58314;47.722;17.652;2022-09-09T14:28:30;100066.91;;;26.27;39.94
70728;BME280;58314;47.722;17.652;2022-09-09T14:31:30;100071.72;;;26.40;42.57
70728;BME280;58314;47.722;17.652;2022-09-09T14:34:31;100072.38;;;26.19;43.78
70728;BME280;58314;47.722;17.652;2022-09-09T14:37:35;100076.53;;;25.75;42.40
70728;BME280;58314;47.722;17.652;2022-09-09T14:40:37;100075.53;;;25.77;43.37
70728;BME280;58314;47.722;17.652;2022-09-09T14:43:39;100075.75;;;25.67;45.66
70728;BME280;58314;47.722;17.652;2022-09-09T14:46:39;100083.00;;;25.74;45.76
70728;BME280;58314;47.722;17.652;2022-09-09T14:49:41;100078.06;;;25.39;45.84
70728;BME280;58314;47.722;17.652;2022-09-09T14:52:42;100083.25;;;25.48;47.18
70728;BME280;58314;47.722;17.652;2022-09-09T14:55:42;100078.41;;;25.35;44.71
70728;BME280;58314;47.722;17.652;2022-09-09T14:58:43;100082.94;;;25.43;47.73
70728;BME280;58314;47.722;17.652;2022-09-09T15:01:45;100086.88;;;25.41;46.16
70728;BME280;58314;47.722;17.652;2022-09-09T15:04:46;100074.31;;;25.40;45.46
70728;BME280;58314;47.722;17.652;2022-09-09T15:07:46;100071.31;;;25.34;47.33
70728;BME280;58314;47.722;17.652;2022-09-09T15:10:48;100074.72;;;25.28;48.38
70728;BME280;58314;47.722;17.652;2022-09-09T15:13:51;100062.56;;;25.08;48.22
70728;BME280;58314;47.722;17.652;2022-09-09T15:16:53;100066.13;;;25.08;47.96
70728;BME280;58314;47.722;17.652;2022-09-09T15:19:54;100060.34;;;25.11;47.19
70728;BME280;58314;47.722;17.652;2022-09-09T15:22:55;100063.63;;;25.46;43.85
70728;BME280;58314;47.722;17.652;2022-09-09T15:25:56;100059.63;;;25.34;47.15
70728;BME280;58314;47.722;17.652;2022-09-09T15:28:57;100066.94;;;25.25;47.77
70728;BME280;58314;47.722;17.652;2022-09-09T15:31:59;100062.75;;;25.06;48.13
70728;BME280;58314;47.722;17.652;2022-09-09T15:35:00;100061.25;;;24.87;48.97
70728;BME280;58314;47.722;17.652;2022-09-09T15:38:02;100059.28;;;24.73;50.07
70728;BME280;58314;47.722;17.652;2022-09-09T15:41:05;100058.78;;;24.61;48.34
70728;BME280;58314;47.722;17.652;2022-09-09T15:44:06;100064.84;;;24.71;50.12
70728;BME280;58314;47.722;17.652;2022-09-09T15:47:07;100072.47;;;24.76;49.25
70728;BME280;58314;47.722;17.652;2022-09-09T15:50:10;100075.00;;;24.36;49.32
70728;BME280;58314;47.722;17.652;2022-09-09T15:53:11;100081.03;;;24.05;49.99
70728;BME280;58314;47.722;17.652;2022-09-09T15:56:11;100074.75;;;23.88;49.95
70728;BME280;58314;47.722;17.652;2022-09-09T15:59:12;100068.56;;;24.04;50.21
70728;BME280;58314;47.722;17.652;2022-09-09T16:02:13;100065.81;;;23.88;50.13
70728;BME280;58314;47.722;17.652;2022-09-09T16:05:14;100070.31;;;23.79;50.53
70728;BME280;58314;47.722;17.652;2022-09-09T16:08:15;100062.97;;;23.55;51.79
70728;BME280;58314;47.722;17.652;2022-09-09T16:11:18;100067.31;;;23.40;51.69
70728;BME280;58314;47.722;17.652;2022-09-09T16:14:20;100070.38;;;23.45;52.51
70728;BME280;58314;47.722;17.652;2022-09-09T16:17:22;100072.44;;;23.51;52.16
70728;BME280;58314;47.722;17.652;2022-09-09T16:20:22;100066.72;;;23.54;52.21
70728;BME280;58314;47.722;17.652;2022-09-09T16:23:23;100061.91;;;23.40;53.51
70728;BME280;58314;47.722;17.652;2022-09-09T16:26:25;100071.72;;;23.41;53.76
70728;BME280;58314;47.722;17.652;2022-09-09T16:29:26;100078.09;;;23.40;55.44
70728;BME280;58314;47.722;17.652;2022-09-09T16:32:27;100076.78;;;23.09;56.82
70728;BME280;58314;47.722;17.652;2022-09-09T16:35:28;100078.66;;;23.09;56.37
70728;BME280;58314;47.722;17.652;2022-09-09T16:38:30;100079.09;;;23.04;56.21
70728;BME280;58314;47.722;17.652;2022-09-09T16:41:31;100081.13;;;22.84;57.93
70728;BME280;58314;47.722;17.652;2022-09-09T16:44:32;100083.59;;;22.69;58.95
70728;BME280;58314;47.722;17.652;2022-09-09T16:47:33;100089.53;;;22.55;58.87
70728;BME280;58314;47.722;17.652;2022-09-09T16:50:34;100096.53;;;22.66;56.66
70728;BME280;58314;47.722;17.652;2022-09-09T16:53:35;100103.97;;;22.72;55.77
70728;BME280;58314;47.722;17.652;2022-09-09T16:56:38;100105.19;;;22.33;56.80
70728;BME280;58314;47.722;17.652;2022-09-09T16:59:39;100107.47;;;22.10;58.66
70728;BME280;58314;47.722;17.652;2022-09-09T17:02:40;100102.31;;;22.17;59.34
70728;BME280;58314;47.722;17.652;2022-09-09T17:05:40;100104.25;;;22.07;59.83
70728;BME280;58314;47.722;17.652;2022-09-09T17:08:42;100105.47;;;21.67;61.99
70728;BME280;58314;47.722;17.652;2022-09-09T17:11:43;100109.59;;;21.61;62.05
70728;BME280;58314;47.722;17.652;2022-09-09T17:14:45;100101.38;;;21.62;61.09
70728;BME280;58314;47.722;17.652;2022-09-09T17:17:46;100102.41;;;21.61;61.73
70728;BME280;58314;47.722;17.652;2022-09-09T17:20:49;100103.63;;;21.67;62.16
70728;BME280;58314;47.722;17.652;2022-09-09T17:23:50;100102.69;;;21.58;63.16
70728;BME280;58314;47.722;17.652;2022-09-09T17:26:50;100110.09;;;21.47;64.06
70728;BME280;58314;47.722;17.652;2022-09-09T17:29:51;100111.34;;;21.52;64.43